Startpagina
METAR-TAF:

METAR-TAF

Vliegvelden :

Aeroporto da Madeira

Funchal, Madeira, Portugal

breedte: 32-41-52N, lengte: 016-46-28W, hoogte: 59 m

Actueel weer

Dit bericht is 14 minuten geleden gemaakt, om 08:30 UTC
Wind 8 kt uit het noorden
Temperatuur 21°C
Vochtigheid 73%
Druk 1021 hPa
Zicht 10 km of meer
Verspreide wolken op 1500 ft
Verspreide wolken op 3000 ft

METAR: LPMA 180830Z 01008KT 9999 SCT015 SCT030 21/16 Q1021

Tijdstip: 09:44 (08:44 UTC)

Verwachting

Dit bericht is 3 uur en het 44 minuten geleden gemaakt, om 05:00 UTC
Verwachting geldig van 18 om 06 UTC tot 19 om 06 UTC
Wind 12 kt uit het noordnoordoosten
Zicht 10 km of meer
Gebroken wolken op 1500 ft
Wijzigt naar
van 18 om 06 UTC tot 18 om 09 UTC
Verspreide wolken op 1500 ft
Kans 40% :
Tijdelijke
van 18 om 09 UTC tot 18 om 20 UTC
Wind 15 kt uit het noorden met uitschieters tot 25 kt

TAF: LPMA 180500Z 1806/1906 02012KT 9999 BKN015 BECMG 1806/1809 SCT015 PROB40 TEMPO 1809/1820 01015G25KT

Waarnemingen en weersverwachtingen van meer dan 4000 vliegvelden (METAR en TAF).

De beschikbare stations zijn de gele en rode punten op de kaart.

Ga met uw muis naar het station om de naam te zien.

Klik dan om waarnemingen en weersverwachtingen te zien.

kaart wijzigen: klik op de groene knoppen met een zwart kruis om in te zoomen, op de groene knop met een streepje om uit te zoomen of op de groene pijlen voor aangrenzende kaarten.


METAR-TAF: